Time;durP1;ratioP1;P1;durP2;ratioP2;P2;SDS_P1;SDS_P2;PMS_P1;PMS_P2;Temp;Humidity;BMP_temperature;BMP_pressure;BME280_temperature;BME280_humidity;BME280_pressure;Samples;Min_cycle;Max_cycle;Signal;HPM_P1;HPM_P2
2023/07/13 00:01:04;;;;;;;7.50;0.95;;;;;;;17.70;63.80;101208.38;5009945;28;20037;-74
2023/07/13 00:03:34;;;;;;;7.22;1.20;;;;;;;17.61;63.98;101204.28;5005242;28;20165;-74
2023/07/13 00:06:01;;;;;;;3.45;0.88;;;;;;;17.59;63.90;101206.28;4999678;28;20732;-73
2023/07/13 00:08:30;;;;;;;2.78;0.90;;;;;;;17.56;64.12;101211.94;5007016;28;20041;-73
2023/07/13 00:10:55;;;;;;;5.03;1.20;;;;;;;17.57;64.32;101213.53;5006181;28;20084;-74
2023/07/13 00:13:20;;;;;;;3.67;1.00;;;;;;;17.52;64.48;101217.53;5008929;28;20037;-74
2023/07/13 00:15:46;;;;;;;3.72;1.38;;;;;;;17.50;64.52;101211.69;5003239;28;20030;-74
2023/07/13 00:18:12;;;;;;;7.82;1.00;;;;;;;17.48;64.98;101218.13;5006093;28;20033;-74
2023/07/13 00:20:37;;;;;;;3.03;1.08;;;;;;;17.47;64.86;101213.88;5006528;28;20049;-73
2023/07/13 00:23:02;;;;;;;3.97;0.90;;;;;;;17.44;65.25;101215.06;5003207;28;20034;-73
2023/07/13 00:25:28;;;;;;;5.35;1.00;;;;;;;17.45;65.63;101210.63;5005260;28;20057;-73
2023/07/13 00:27:55;;;;;;;2.67;0.80;;;;;;;17.42;65.94;101200.53;5004486;28;20030;-73
2023/07/13 00:30:20;;;;;;;3.45;0.90;;;;;;;17.40;65.65;101205.16;5012577;28;20062;-73
2023/07/13 00:32:45;;;;;;;4.70;0.90;;;;;;;17.37;65.91;101213.41;5005121;28;20018;-73
2023/07/13 00:35:14;;;;;;;4.35;1.20;;;;;;;17.36;66.21;101217.03;4988900;28;20050;-74
2023/07/13 00:37:39;;;;;;;5.50;1.10;;;;;;;17.28;65.49;101210.13;5009137;28;20038;-73
2023/07/13 00:40:07;;;;;;;3.97;1.40;;;;;;;17.22;66.20;101210.88;5011758;28;20041;-74
2023/07/13 00:42:33;;;;;;;5.97;1.30;;;;;;;17.13;66.80;101208.38;5010449;28;20134;-73
2023/07/13 00:45:27;;;;;;;10.95;1.23;;;;;;;17.12;66.89;101211.19;5003373;28;20128;-74
2023/07/13 00:47:52;;;;;;;;;;;;;;;17.08;67.36;101202.91;5018710;28;20030;-74
2023/07/13 00:50:21;;;;;;;4.30;0.98;;;;;;;17.07;66.91;101211.75;5001903;28;19925;-73
2023/07/13 00:52:49;;;;;;;2.30;1.00;;;;;;;17.07;66.99;101217.00;5014960;28;20033;-73
2023/07/13 00:55:17;;;;;;;5.82;1.30;;;;;;;17.06;67.35;101215.38;5006425;28;20061;-74
2023/07/13 00:57:43;;;;;;;4.05;1.10;;;;;;;17.02;67.76;101210.72;4998850;28;20669;-73
2023/07/13 01:00:11;;;;;;;2.45;0.80;;;;;;;17.02;67.84;101205.47;5003530;28;20045;-74
2023/07/13 01:02:44;;;;;;;3.78;1.13;;;;;;;17.05;67.98;101220.81;5006097;28;20210;-73
2023/07/13 01:05:14;;;;;;;2.80;0.87;;;;;;;17.06;68.13;101212.75;5001947;28;20048;-73
2023/07/13 01:07:42;;;;;;;2.55;0.98;;;;;;;17.02;68.46;101218.56;5010431;28;20468;-74
2023/07/13 01:10:08;;;;;;;5.13;0.93;;;;;;;16.97;68.71;101220.94;5008668;28;20523;-74
2023/07/13 01:12:34;;;;;;;2.83;0.82;;;;;;;16.91;68.51;101217.25;5020620;28;20165;-73
2023/07/13 01:15:00;;;;;;;5.97;1.05;;;;;;;16.91;67.83;101215.47;5005872;28;20577;-74
2023/07/13 01:17:28;;;;;;;6.32;1.35;;;;;;;16.82;68.53;101207.88;5012220;28;20029;-72
2023/07/13 01:19:53;;;;;;;6.60;1.27;;;;;;;16.77;69.08;101208.44;5003717;28;20140;-74
2023/07/13 01:22:25;;;;;;;2.17;0.90;;;;;;;16.68;69.54;101207.75;5011392;28;20101;-73
2023/07/13 01:24:51;;;;;;;5.75;1.13;;;;;;;16.70;68.80;101210.19;5011270;28;20051;-73
2023/07/13 01:27:20;;;;;;;4.70;1.00;;;;;;;16.64;69.55;101219.59;5005853;28;20069;-73
2023/07/13 01:29:47;;;;;;;6.00;1.40;;;;;;;16.63;70.09;101222.38;5009771;28;20037;-73
2023/07/13 01:32:22;;;;;;;6.72;1.27;;;;;;;16.63;70.40;101215.38;5002047;28;20381;-73
2023/07/13 01:34:48;;;;;;;4.88;1.38;;;;;;;16.72;70.47;101221.28;4992708;28;20516;-74
2023/07/13 01:37:16;;;;;;;9.57;1.25;;;;;;;16.61;70.56;101211.28;5003686;28;20097;-73
2023/07/13 01:39:42;;;;;;;2.83;1.13;;;;;;;16.56;71.05;101219.72;4988492;28;20460;-73
2023/07/13 01:42:08;;;;;;;6.38;1.50;;;;;;;16.52;71.19;101208.81;5006026;28;20023;-73
2023/07/13 01:44:34;;;;;;;7.95;1.60;;;;;;;16.50;71.62;101208.19;5008179;28;20041;-73
2023/07/13 01:47:01;;;;;;;3.65;0.90;;;;;;;16.51;71.83;101214.22;5006478;28;20026;-73
2023/07/13 01:49:26;;;;;;;3.63;1.13;;;;;;;16.49;71.92;101217.00;5000265;28;20110;-74
2023/07/13 01:51:52;;;;;;;5.68;1.75;;;;;;;16.46;72.52;101217.41;5015358;28;20496;-73
2023/07/13 01:54:17;;;;;;;3.25;1.08;;;;;;;16.43;72.43;101216.94;5010910;28;20037;-72
2023/07/13 01:56:43;;;;;;;6.40;1.10;;;;;;;16.40;72.98;101214.69;5006092;28;20064;-73
2023/07/13 01:59:09;;;;;;;5.88;1.52;;;;;;;16.37;72.97;101222.91;5002609;28;20038;-73
2023/07/13 02:01:34;;;;;;;6.45;1.88;;;;;;;16.35;73.14;101221.28;5016395;28;20081;-74
2023/07/13 02:04:00;;;;;;;4.40;1.02;;;;;;;16.33;73.29;101223.28;5002891;28;20413;-73
2023/07/13 02:06:27;;;;;;;6.50;1.63;;;;;;;16.22;73.58;101225.53;5003828;28;20026;-74
2023/07/13 02:08:54;;;;;;;6.32;1.15;;;;;;;16.23;73.80;101224.56;5002992;28;20404;-73
2023/07/13 02:11:19;;;;;;;4.20;1.08;;;;;;;16.22;73.97;101231.59;4991143;28;20049;-74
2023/07/13 02:13:45;;;;;;;5.35;1.02;;;;;;;16.16;74.44;101216.63;5008694;28;20069;-73
2023/07/13 02:16:10;;;;;;;1.83;1.00;;;;;;;16.12;74.81;101225.84;5007736;28;20037;-73
2023/07/13 02:18:36;;;;;;;3.25;1.10;;;;;;;16.15;75.22;101223.66;4993786;28;20030;-73
2023/07/13 02:21:02;;;;;;;3.72;0.90;;;;;;;16.08;75.10;101220.16;5010361;28;20022;-73
2023/07/13 02:23:28;;;;;;;4.72;1.05;;;;;;;16.09;75.52;101220.97;5007585;28;20034;-73
2023/07/13 02:25:58;;;;;;;11.05;1.85;;;;;;;16.02;75.76;101220.06;5006792;28;20025;-73
2023/07/13 02:28:23;;;;;;;8.18;1.20;;;;;;;16.01;75.63;101216.66;5002923;28;20034;-74
2023/07/13 02:30:49;;;;;;;6.03;1.27;;;;;;;15.94;76.25;101221.78;5017226;28;20439;-73
2023/07/13 02:33:15;;;;;;;4.95;1.25;;;;;;;15.94;76.31;101227.03;5009862;28;20034;-72
2023/07/13 02:35:40;;;;;;;7.88;2.55;;;;;;;15.94;76.31;101219.19;4987320;28;20631;-73
2023/07/13 02:38:06;;;;;;;6.53;1.50;;;;;;;15.96;76.42;101226.84;5003946;28;20033;-73
2023/07/13 02:40:33;;;;;;;9.43;2.15;;;;;;;15.85;77.11;101224.69;5004865;28;20076;-73
2023/07/13 02:42:59;;;;;;;6.20;2.20;;;;;;;15.84;77.56;101220.44;5006616;28;20018;-74
2023/07/13 02:45:25;;;;;;;6.70;1.08;;;;;;;15.70;77.38;101228.06;5006877;28;20467;-74
2023/07/13 02:47:50;;;;;;;5.22;1.70;;;;;;;15.75;77.75;101224.97;5013481;28;20034;-73
2023/07/13 02:50:17;;;;;;;4.95;1.15;;;;;;;15.79;77.81;101230.63;4989415;28;20413;-73
2023/07/13 02:52:42;;;;;;;11.32;1.65;;;;;;;15.79;77.83;101228.03;4987396;28;20038;-73
2023/07/13 02:55:08;;;;;;;8.18;1.98;;;;;;;15.72;78.20;101220.84;5003682;28;20034;-72
2023/07/13 02:57:34;;;;;;;6.90;2.30;;;;;;;15.72;78.11;101225.28;5002800;28;20052;-74
2023/07/13 03:00:00;;;;;;;5.03;1.30;;;;;;;15.64;78.75;101238.44;5014163;28;20456;-73
2023/07/13 03:02:27;;;;;;;5.70;1.30;;;;;;;15.58;79.19;101234.72;5007512;28;20120;-73
2023/07/13 03:04:55;;;;;;;4.60;1.02;;;;;;;15.61;79.35;101236.16;5010603;28;20037;-73
2023/07/13 03:07:21;;;;;;;8.38;1.48;;;;;;;15.60;79.46;101224.09;5009442;28;20119;-75
2023/07/13 03:09:48;;;;;;;13.38;1.42;;;;;;;15.56;79.70;101221.84;5007336;28;20041;-73
2023/07/13 03:12:14;;;;;;;10.07;1.58;;;;;;;15.51;79.96;101218.94;5010524;28;20031;-73
2023/07/13 03:14:39;;;;;;;5.25;1.13;;;;;;;15.50;80.11;101227.78;5009900;28;20054;-73
2023/07/13 03:17:06;;;;;;;5.43;1.65;;;;;;;15.50;80.33;101229.56;5007390;28;20527;-73
2023/07/13 03:19:34;;;;;;;5.88;1.45;;;;;;;15.47;80.19;101235.16;5025304;28;20041;-73
2023/07/13 03:22:01;;;;;;;7.25;1.60;;;;;;;15.50;80.09;101232.19;5004901;28;20133;-73
2023/07/13 03:24:26;;;;;;;6.43;1.25;;;;;;;15.48;80.44;101232.38;5006447;28;20037;-74
2023/07/13 03:26:52;;;;;;;5.43;1.35;;;;;;;15.48;80.59;101248.06;5015017;28;20038;-73
2023/07/13 03:29:18;;;;;;;7.70;1.08;;;;;;;15.50;80.49;101238.25;5013488;28;20139;-73
2023/07/13 03:31:44;;;;;;;4.68;1.50;;;;;;;15.50;80.68;101253.09;5009732;28;20083;-73
2023/07/13 03:34:09;;;;;;;6.10;1.10;;;;;;;15.54;80.99;101243.94;5014924;28;20053;-73
2023/07/13 03:36:36;;;;;;;4.38;1.20;;;;;;;15.51;81.22;101249.50;5008436;28;20374;-74
2023/07/13 03:39:08;;;;;;;4.65;1.35;;;;;;;15.49;81.05;101254.09;5013326;28;20038;-74
2023/07/13 03:41:55;;;;;;;11.38;1.73;;;;;;;15.54;81.38;101259.59;5015344;28;20038;-74
2023/07/13 03:44:21;;;;;;;7.32;1.35;;;;;;;15.55;81.26;101263.81;5006598;28;20088;-73
2023/07/13 03:46:52;;;;;;;5.38;1.38;;;;;;;15.51;81.20;101254.72;5008946;28;20505;-73
2023/07/13 03:49:17;;;;;;;9.15;1.35;;;;;;;15.45;81.75;101261.47;5009464;28;20053;-73
2023/07/13 03:51:43;;;;;;;3.28;1.10;;;;;;;15.46;81.96;101263.06;5013100;28;20087;-73
2023/07/13 03:54:09;;;;;;;3.65;1.50;;;;;;;15.43;82.26;101273.91;5007432;28;20051;-73
2023/07/13 03:56:34;;;;;;;9.57;2.10;;;;;;;15.45;82.23;101269.31;5010459;28;20452;-73
2023/07/13 03:59:02;;;;;;;6.78;1.65;;;;;;;15.41;82.85;101268.03;5009083;28;20049;-73
2023/07/13 04:01:29;;;;;;;8.27;1.70;;;;;;;15.38;83.00;101269.19;5009382;28;20028;-73
2023/07/13 04:03:54;;;;;;;7.55;1.38;;;;;;;15.37;82.59;101272.81;5008747;28;20046;-73
2023/07/13 04:06:26;;;;;;;4.30;1.95;;;;;;;15.38;83.11;101281.44;5009612;28;20112;-72
2023/07/13 04:08:58;;;;;;;8.30;1.50;;;;;;;15.38;83.46;101279.63;5008794;28;20045;-73
2023/07/13 04:11:26;;;;;;;10.93;1.40;;;;;;;15.34;83.67;101288.03;5014889;28;20068;-73
2023/07/13 04:13:52;;;;;;;4.38;1.17;;;;;;;15.36;83.39;101284.22;5008212;28;20052;-73
2023/07/13 04:16:18;;;;;;;5.80;1.25;;;;;;;15.30;83.69;101277.09;5009778;28;20045;-72
2023/07/13 04:18:45;;;;;;;5.45;1.60;;;;;;;15.28;83.89;101289.53;5009877;28;20624;-73
2023/07/13 04:21:11;;;;;;;10.13;1.42;;;;;;;15.30;83.74;101287.56;5007054;28;20037;-73
2023/07/13 04:23:37;;;;;;;3.67;1.35;;;;;;;15.29;83.71;101285.91;5010843;28;20084;-73
2023/07/13 04:26:03;;;;;;;4.32;1.40;;;;;;;15.33;83.96;101287.22;5004158;28;20671;-71
2023/07/13 04:28:28;;;;;;;4.32;1.17;;;;;;;15.29;84.33;101287.72;4988132;28;20168;-73
2023/07/13 04:30:54;;;;;;;5.25;1.40;;;;;;;15.28;84.59;101292.13;5010239;28;20038;-72
2023/07/13 04:33:23;;;;;;;8.30;1.60;;;;;;;15.27;84.89;101285.28;5012513;28;20036;-73
2023/07/13 04:35:54;;;;;;;10.05;2.00;;;;;;;15.31;84.81;101286.56;5010929;28;20033;-73
2023/07/13 04:38:20;;;;;;;9.73;2.03;;;;;;;15.37;83.90;101298.13;5008002;28;20026;-73
2023/07/13 04:40:45;;;;;;;6.25;1.52;;;;;;;15.36;84.56;101296.50;5003861;28;20044;-73
2023/07/13 04:43:11;;;;;;;5.85;1.40;;;;;;;15.32;84.80;101293.41;4987897;28;20437;-72
2023/07/13 04:45:37;;;;;;;3.70;1.15;;;;;;;15.41;84.92;101288.09;5005931;28;20145;-73
2023/07/13 04:48:03;;;;;;;6.35;1.30;;;;;;;15.47;84.38;101293.47;5007660;28;20026;-72
2023/07/13 04:50:29;;;;;;;4.07;1.50;;;;;;;15.44;85.21;101293.81;5004099;28;20068;-72
2023/07/13 04:52:54;;;;;;;8.85;2.55;;;;;;;15.46;84.99;101302.28;5021603;28;20038;-73
2023/07/13 04:55:20;;;;;;;8.73;1.83;;;;;;;15.47;85.10;101290.84;5008777;28;20049;-72
2023/07/13 04:57:46;;;;;;;6.90;1.60;;;;;;;15.53;85.47;101291.94;5004801;28;20040;-73
2023/07/13 05:00:13;;;;;;;6.63;1.90;;;;;;;15.61;84.59;101294.47;5012155;28;20055;-72
2023/07/13 05:02:39;;;;;;;5.03;1.58;;;;;;;15.67;84.31;101295.56;5008477;28;20042;-74
2023/07/13 05:05:06;;;;;;;9.93;1.60;;;;;;;15.77;84.15;101301.41;5005659;28;20104;-72
2023/07/13 05:07:32;;;;;;;8.23;1.40;;;;;;;15.81;84.63;101313.13;5009856;28;20034;-72
2023/07/13 05:09:59;;;;;;;11.65;2.33;;;;;;;15.79;84.01;101314.31;4996664;28;20517;-74
2023/07/13 05:12:25;;;;;;;8.63;2.22;;;;;;;15.92;83.86;101304.84;5009500;28;20025;-72
2023/07/13 05:14:51;;;;;;;9.45;2.53;;;;;;;15.92;83.73;101304.84;5011836;28;20045;-73
2023/07/13 05:17:16;;;;;;;8.18;1.70;;;;;;;16.04;83.32;101305.22;5014994;28;20033;-72
2023/07/13 05:19:42;;;;;;;10.18;2.67;;;;;;;16.14;81.89;101308.38;5011496;28;20524;-73
2023/07/13 05:22:07;;;;;;;12.73;1.77;;;;;;;16.19;82.70;101314.88;5005568;28;20528;-73
2023/07/13 05:24:33;;;;;;;8.93;1.88;;;;;;;16.28;82.41;101311.97;5007148;28;20103;-73
2023/07/13 05:26:59;;;;;;;11.80;1.90;;;;;;;16.20;82.30;101317.31;5007894;28;20066;-75
2023/07/13 05:29:24;;;;;;;14.20;2.05;;;;;;;16.30;82.48;101314.44;5008867;28;20084;-73
2023/07/13 05:31:50;;;;;;;9.05;2.03;;;;;;;16.31;81.96;101318.66;5011871;28;20036;-72
2023/07/13 05:34:16;;;;;;;11.95;1.65;;;;;;;16.41;81.57;101323.63;5003729;28;20069;-73
2023/07/13 05:36:42;;;;;;;11.85;3.03;;;;;;;16.49;81.57;101321.72;5008015;28;20034;-71
2023/07/13 05:39:07;;;;;;;13.07;2.03;;;;;;;16.49;81.65;101329.56;5010390;28;20519;-72
2023/07/13 05:41:32;;;;;;;12.75;2.25;;;;;;;16.56;81.43;101327.03;5020169;28;20039;-73
2023/07/13 05:43:58;;;;;;;14.38;1.92;;;;;;;16.67;81.29;101330.97;5007780;28;20048;-72
2023/07/13 05:46:24;;;;;;;9.85;1.83;;;;;;;16.74;80.74;101334.50;5013197;28;20036;-73
2023/07/13 05:48:49;;;;;;;11.02;2.47;;;;;;;16.77;80.63;101333.31;5008787;28;20125;-73
2023/07/13 05:51:15;;;;;;;10.32;1.80;;;;;;;16.83;81.64;101340.47;5014278;28;20049;-74
2023/07/13 05:53:40;;;;;;;7.72;1.95;;;;;;;17.02;81.22;101339.06;5004608;28;20108;-73
2023/07/13 05:56:06;;;;;;;11.82;2.35;;;;;;;17.12;80.82;101347.41;5007328;28;20080;-73
2023/07/13 05:58:31;;;;;;;10.25;2.15;;;;;;;17.27;80.31;101347.38;5004024;28;20030;-74
2023/07/13 06:01:05;;;;;;;10.95;2.40;;;;;;;17.39;79.27;101353.75;5012041;28;20033;-74
2023/07/13 06:03:31;;;;;;;9.60;2.38;;;;;;;17.43;79.53;101355.00;5012220;28;20046;-73
2023/07/13 06:05:56;;;;;;;10.02;2.35;;;;;;;17.36;79.43;101354.13;5012448;28;20077;-74
2023/07/13 06:08:21;;;;;;;6.22;2.88;;;;;;;17.48;79.53;101357.88;5005044;28;20389;-72
2023/07/13 06:10:47;;;;;;;11.00;2.85;;;;;;;17.48;80.12;101359.69;5007132;28;20038;-76
2023/07/13 06:13:12;;;;;;;7.70;2.60;;;;;;;17.66;79.32;101369.72;5006686;28;20045;-74
2023/07/13 06:15:38;;;;;;;12.20;2.33;;;;;;;17.60;79.18;101363.41;5012292;28;20045;-74
2023/07/13 06:18:03;;;;;;;16.98;3.97;;;;;;;17.68;78.84;101372.97;5006634;28;20034;-73
2023/07/13 06:20:29;;;;;;;10.88;2.38;;;;;;;17.55;79.05;101367.59;5001937;28;20037;-73
2023/07/13 06:22:54;;;;;;;13.18;4.15;;;;;;;17.47;80.03;101369.34;5009208;28;20083;-74
2023/07/13 06:25:20;;;;;;;14.52;3.55;;;;;;;17.49;79.94;101372.59;5004429;28;20045;-75
2023/07/13 06:27:46;;;;;;;6.70;2.53;;;;;;;17.52;80.80;101374.03;5004895;28;20772;-73
2023/07/13 06:30:12;;;;;;;14.90;3.95;;;;;;;17.59;80.77;101379.31;5003427;28;20440;-73
2023/07/13 06:32:37;;;;;;;11.23;2.65;;;;;;;17.51;80.81;101373.22;5016362;28;20408;-72
2023/07/13 06:35:03;;;;;;;15.15;2.78;;;;;;;17.41;80.65;101380.59;5013637;28;20038;-72
2023/07/13 06:37:29;;;;;;;13.20;3.05;;;;;;;17.27;81.29;101377.03;4988709;28;20957;-73
2023/07/13 06:39:54;;;;;;;14.68;3.63;;;;;;;17.21;82.04;101385.63;5010008;28;20073;-75
2023/07/13 06:42:20;;;;;;;10.07;2.97;;;;;;;17.11;82.35;101382.50;5009235;28;20026;-74
2023/07/13 06:44:45;;;;;;;15.95;4.10;;;;;;;17.21;82.96;101384.81;5009866;28;20505;-75
2023/07/13 06:47:11;;;;;;;18.30;3.67;;;;;;;17.31;82.68;101383.53;5015725;28;20491;-72
2023/07/13 06:49:36;;;;;;;9.45;3.47;;;;;;;17.30;82.15;101397.59;5006419;28;20108;-73
2023/07/13 06:52:02;;;;;;;10.82;3.25;;;;;;;17.35;82.58;101393.63;5003799;28;20038;-72
2023/07/13 06:54:27;;;;;;;11.82;2.70;;;;;;;17.40;81.96;101396.50;5014025;28;20050;-73
2023/07/13 06:56:53;;;;;;;9.95;3.47;;;;;;;17.56;81.92;101395.44;5012261;28;20036;-74
2023/07/13 06:59:19;;;;;;;14.27;2.60;;;;;;;17.71;81.24;101398.81;4996493;28;20042;-73
2023/07/13 07:01:44;;;;;;;14.57;2.95;;;;;;;17.80;80.36;101400.31;5009642;28;20030;-72
2023/07/13 07:04:10;;;;;;;8.77;2.78;;;;;;;17.82;80.00;101400.09;5009792;28;20096;-76
2023/07/13 07:06:35;;;;;;;10.27;2.97;;;;;;;17.71;80.64;101402.25;5011144;28;20041;-75
2023/07/13 07:09:00;;;;;;;16.20;2.90;;;;;;;17.81;80.42;101398.50;5006484;28;20054;-75
2023/07/13 07:11:26;;;;;;;13.35;2.80;;;;;;;17.99;79.46;101406.75;5009574;28;20022;-75
2023/07/13 07:13:53;;;;;;;7.47;2.75;;;;;;;18.16;79.21;101399.41;5003403;28;20042;-72
2023/07/13 07:16:20;;;;;;;10.70;2.92;;;;;;;18.58;77.58;101389.75;5008254;28;20030;-74
2023/07/13 07:18:46;;;;;;;9.38;2.78;;;;;;;18.59;77.31;101407.13;5005734;28;20129;-73
2023/07/13 07:21:12;;;;;;;12.05;2.80;;;;;;;18.48;77.27;101400.59;5012331;28;20033;-73
2023/07/13 07:23:38;;;;;;;9.75;2.50;;;;;;;18.47;76.80;101403.41;5011514;28;20475;-73
2023/07/13 07:26:04;;;;;;;12.75;3.10;;;;;;;18.46;77.14;101407.84;5010562;28;20033;-74
2023/07/13 07:28:30;;;;;;;11.57;2.75;;;;;;;18.97;76.45;101414.59;5005461;28;20056;-74
2023/07/13 07:30:57;;;;;;;15.60;2.42;;;;;;;19.24;74.11;101412.84;5009143;28;20026;-72
2023/07/13 07:33:23;;;;;;;13.15;2.80;;;;;;;19.01;74.48;101405.31;4995792;28;20591;-72
2023/07/13 07:35:49;;;;;;;11.65;2.53;;;;;;;19.01;75.10;101407.94;5008389;28;20034;-77
2023/07/13 07:38:15;;;;;;;6.20;2.28;;;;;;;19.63;72.93;101403.41;5013061;28;20052;-74
2023/07/13 07:40:41;;;;;;;12.85;2.67;;;;;;;19.92;72.12;101404.03;5012476;28;20536;-74
2023/07/13 07:43:08;;;;;;;13.20;2.75;;;;;;;20.37;71.37;101406.81;5005374;28;20038;-73
2023/07/13 07:45:34;;;;;;;12.27;2.92;;;;;;;19.94;70.84;101402.00;5016776;28;20121;-73
2023/07/13 07:47:59;;;;;;;11.85;4.18;;;;;;;19.97;71.11;101406.88;5006264;28;21209;-73
2023/07/13 07:50:26;;;;;;;12.10;3.03;;;;;;;19.99;72.07;101401.41;5006360;28;21997;-73
2023/07/13 07:52:51;;;;;;;7.18;2.50;;;;;;;19.98;71.83;101410.31;5013153;28;20128;-73
2023/07/13 07:55:17;;;;;;;11.00;2.50;;;;;;;19.71;72.20;101412.91;5016563;28;20049;-73
2023/07/13 07:57:43;;;;;;;13.15;2.78;;;;;;;19.71;72.98;101406.84;5007724;28;20104;-73
2023/07/13 08:00:09;;;;;;;9.93;2.35;;;;;;;19.60;73.25;101408.25;5010511;28;20038;-74
2023/07/13 08:02:41;;;;;;;7.25;1.98;;;;;;;19.48;72.76;101405.41;5008527;28;20045;-74
2023/07/13 08:05:08;;;;;;;13.15;2.30;;;;;;;19.45;73.36;101408.44;5011410;28;20099;-73
2023/07/13 08:07:34;;;;;;;6.85;2.15;;;;;;;19.33;74.08;101404.78;5012826;28;20048;-74
2023/07/13 08:09:59;;;;;;;9.52;2.83;;;;;;;19.16;74.52;101410.41;5005981;28;20080;-72
2023/07/13 08:12:25;;;;;;;10.90;2.95;;;;;;;19.30;75.08;101415.69;4987151;28;20061;-73
2023/07/13 08:14:57;;;;;;;8.48;2.08;;;;;;;19.24;74.08;101396.28;5006300;28;20041;-75
2023/07/13 08:17:23;;;;;;;5.03;2.05;;;;;;;19.30;75.79;101405.19;5009491;28;20045;-74
2023/07/13 08:19:49;;;;;;;15.10;4.43;;;;;;;19.33;75.01;101402.97;5005785;28;20042;-73
2023/07/13 08:22:14;;;;;;;10.95;3.10;;;;;;;19.52;75.07;101411.09;5012594;28;20033;-74
2023/07/13 08:24:42;;;;;;;7.93;2.17;;;;;;;19.67;75.18;101400.38;5003482;28;20038;-72
2023/07/13 08:27:07;;;;;;;11.63;3.25;;;;;;;19.92;73.93;101403.25;5007270;28;20057;-74
2023/07/13 08:29:33;;;;;;;8.85;2.72;;;;;;;19.97;73.09;101403.44;5006412;28;20547;-73
2023/07/13 08:31:58;;;;;;;13.63;3.08;;;;;;;20.33;71.39;101395.09;5013342;28;20033;-74
2023/07/13 08:34:24;;;;;;;7.40;2.20;;;;;;;20.52;70.88;101395.25;4992514;28;20046;-73
2023/07/13 08:36:49;;;;;;;12.73;2.55;;;;;;;21.04;69.40;101395.25;5007332;28;20177;-76
2023/07/13 08:39:15;;;;;;;10.35;2.20;;;;;;;21.45;67.65;101388.72;5007459;28;20107;-76
2023/07/13 08:41:40;;;;;;;17.80;3.92;;;;;;;21.94;65.96;101387.94;5004618;28;20046;-75
2023/07/13 08:44:16;;;;;;;11.00;2.63;;;;;;;21.57;66.17;101379.91;5009373;28;20048;-76
2023/07/13 08:46:44;;;;;;;10.32;2.97;;;;;;;21.52;67.78;101386.88;5022851;28;20029;-76
2023/07/13 08:49:22;;;;;;;12.02;2.80;;;;;;;22.08;65.35;101385.16;5007347;28;20659;-72
2023/07/13 08:51:59;;;;;;;13.13;2.85;;;;;;;21.74;64.61;101389.94;5007019;28;20037;-74
2023/07/13 08:54:32;;;;;;;8.30;2.33;;;;;;;22.02;63.50;101397.41;5002255;28;20137;-73
2023/07/13 08:57:02;;;;;;;8.90;2.63;;;;;;;21.92;64.51;101387.31;5001746;28;20496;-75
2023/07/13 08:59:32;;;;;;;7.60;2.55;;;;;;;21.78;63.99;101389.28;5008475;28;20076;-74
2023/07/13 09:02:34;;;;;;;10.25;2.63;;;;;;;21.54;66.07;101392.72;5009664;28;20472;-76
2023/07/13 09:05:03;;;;;;;14.45;2.78;;;;;;;21.72;65.66;101397.28;5006901;28;20049;-74
2023/07/13 09:07:44;;;;;;;10.52;2.47;;;;;;;21.80;65.28;101402.25;5006013;28;20041;-75
2023/07/13 09:10:15;;;;;;;12.32;3.03;;;;;;;22.16;63.24;101395.44;5007000;28;20045;-72
2023/07/13 09:12:47;;;;;;;18.38;3.00;;;;;;;22.46;63.23;101397.41;5003218;28;20037;-72
2023/07/13 09:15:33;;;;;;;13.50;2.42;;;;;;;22.24;61.93;101402.25;5007787;28;20132;-76
2023/07/13 09:18:08;;;;;;;11.20;2.35;;;;;;;21.93;62.55;101402.16;5019942;28;20037;-72
2023/07/13 09:20:44;;;;;;;7.95;2.00;;;;;;;22.04;64.22;101413.00;5006349;28;20160;-73
2023/07/13 09:23:17;;;;;;;6.57;2.30;;;;;;;21.69;63.38;101408.25;5004979;28;20033;-73
2023/07/13 09:25:46;;;;;;;8.07;2.38;;;;;;;21.75;63.84;101415.28;5009354;28;20132;-78
2023/07/13 09:28:12;;;;;;;8.52;2.58;;;;;;;21.75;62.90;101400.25;5006839;28;20036;-75
2023/07/13 09:30:55;;;;;;;10.63;2.70;;;;;;;22.07;63.38;101404.66;5006682;28;20129;-81
2023/07/13 09:33:22;;;;;;;8.38;2.30;;;;;;;22.09;62.36;101406.06;5009307;28;20041;-81
2023/07/13 09:35:49;;;;;;;10.60;2.38;;;;;;;22.20;62.16;101415.09;4997705;28;20451;-73
2023/07/13 09:38:17;;;;;;;12.20;2.20;;;;;;;22.27;62.10;101409.78;5008715;28;20183;-74
2023/07/13 09:41:21;;;;;;;12.27;2.90;;;;;;;22.54;61.88;101407.66;5002733;28;20543;-75
2023/07/13 09:44:05;;;;;;;;;;;;;;;22.26;60.81;101411.59;4999185;28;20034;-75
2023/07/13 09:46:32;;;;;;;10.43;2.03;;;;;;;22.79;59.58;101399.63;5003431;28;19924;-78
2023/07/13 09:48:57;;;;;;;11.77;3.22;;;;;;;23.33;58.82;101395.25;5002894;28;20125;-74
2023/07/13 09:51:23;;;;;;;10.55;2.05;;;;;;;23.47;58.34;101400.31;5005462;28;20117;-74
2023/07/13 09:53:49;;;;;;;7.03;2.03;;;;;;;23.54;56.17;101397.59;5001994;28;20053;-73
2023/07/13 09:56:29;;;;;;;9.52;1.92;;;;;;;23.93;56.61;101393.50;4998643;28;20499;-77
2023/07/13 09:58:55;;;;;;;12.82;2.30;;;;;;;24.40;55.99;101392.66;4997271;28;20544;-75
2023/07/13 10:01:36;;;;;;;10.75;1.85;;;;;;;24.54;54.59;101399.31;5001780;28;20105;-78
2023/07/13 10:04:01;;;;;;;9.35;1.90;;;;;;;24.09;52.85;101400.75;5010563;28;20091;-74
2023/07/13 10:06:27;;;;;;;6.05;1.92;;;;;;;23.91;54.25;101398.22;5012011;28;20025;-74
2023/07/13 10:08:55;;;;;;;10.15;2.80;;;;;;;24.24;54.43;101402.94;5006540;28;20046;-75
2023/07/13 10:11:23;;;;;;;8.95;1.75;;;;;;;23.88;54.62;101401.31;5009642;28;20038;-73
2023/07/13 10:14:02;;;;;;;7.57;1.70;;;;;;;24.08;55.43;101403.63;5010128;28;20050;-76
2023/07/13 10:16:33;;;;;;;6.07;2.10;;;;;;;23.87;55.52;101411.13;5009853;28;20504;-75
2023/07/13 10:19:22;;;;;;;4.70;1.42;;;;;;;23.93;55.35;101403.28;5013858;28;20194;-73
2023/07/13 10:21:56;;;;;;;8.23;2.20;;;;;;;24.25;55.18;101414.31;5012728;28;20048;-77
2023/07/13 10:24:24;;;;;;;6.85;1.75;;;;;;;24.66;53.40;101408.03;5010504;28;20611;-76
2023/07/13 10:27:16;;;;;;;12.93;2.10;;;;;;;24.27;53.76;101415.69;5007713;28;20034;-75
2023/07/13 10:30:01;;;;;;;8.57;1.70;;;;;;;23.79;54.80;101415.94;4991316;28;20582;-73
2023/07/13 10:32:27;;;;;;;6.55;1.48;;;;;;;24.22;54.86;101405.00;5010886;28;20071;-79
2023/07/13 10:34:55;;;;;;;11.93;2.55;;;;;;;24.29;53.69;101410.16;5009319;28;20049;-75
2023/07/13 10:37:27;;;;;;;4.53;1.35;;;;;;;24.21;54.65;101419.28;5008177;28;20029;-73
2023/07/13 10:39:55;;;;;;;6.60;1.70;;;;;;;24.29;53.32;101404.88;5008010;28;20037;-74
2023/07/13 10:42:38;;;;;;;7.07;2.22;;;;;;;24.78;52.44;101413.31;5012425;28;20530;-78
2023/07/13 10:45:15;;;;;;;6.97;1.20;;;;;;;24.72;51.33;101405.50;4989229;28;20111;-76
2023/07/13 10:47:42;;;;;;;8.32;1.65;;;;;;;24.83;50.78;101415.25;5007051;28;20148;-75
2023/07/13 10:50:17;;;;;;;8.25;1.52;;;;;;;25.25;52.45;101417.63;5008921;28;20046;-74
2023/07/13 10:52:50;;;;;;;11.13;1.90;;;;;;;25.44;50.37;101407.59;5010264;28;20038;-75
2023/07/13 10:55:42;;;;;;;6.80;2.13;;;;;;;25.54;50.46;101414.91;5006250;28;20096;-77
2023/07/13 10:58:19;;;;;;;4.88;1.33;;;;;;;25.04;49.38;101413.78;4993335;28;20103;-75
2023/07/13 11:01:07;;;;;;;5.72;2.13;;;;;;;24.76;50.24;101414.59;4992201;28;20046;-75
2023/07/13 11:03:36;;;;;;;6.60;1.58;;;;;;;24.92;51.49;101419.16;5019211;28;20042;-74
2023/07/13 11:06:15;;;;;;;4.82;2.10;;;;;;;25.15;49.33;101420.88;5006176;28;20026;-75
2023/07/13 11:08:46;;;;;;;5.47;1.40;;;;;;;25.24;48.56;101413.34;5002526;28;20058;-74
2023/07/13 11:11:38;;;;;;;8.77;1.65;;;;;;;25.12;48.40;101417.91;5007978;28;20026;-72
2023/07/13 11:14:25;;;;;;;3.85;1.27;;;;;;;24.94;47.93;101409.09;5014072;28;20038;-76
2023/07/13 11:16:51;;;;;;;3.03;1.05;;;;;;;25.06;50.60;101401.88;5003730;28;20042;-75
2023/07/13 11:19:16;;;;;;;10.82;1.60;;;;;;;25.31;49.68;101395.44;5008911;28;20038;-74
2023/07/13 11:22:04;;;;;;;7.20;1.80;;;;;;;25.62;51.27;101393.28;5007226;28;20030;-75
2023/07/13 11:24:48;;;;;;;5.15;1.35;;;;;;;25.76;47.87;101399.06;5000608;28;20058;-73
2023/07/13 11:27:40;;;;;;;6.07;1.70;;;;;;;25.58;48.46;101402.75;5009933;28;20057;-81